Paris, TN

4:16 AM CDT on October 02, 2014 (GMT -0500)
Barkley Regional | Change Station
CLOSE
Current Station
Airport
Location: Paducah,
Elevation: 410 ft
Nearby Weather Stations

Elev 410 ft 37.06 °N, 88.77 °W | Updated 23 minutes ago

Clear
Clear
70 °F
Feels Like 70 °F
N
5
Wind Variable Wind from SSE

Today
High -- | Low -- °F
--% Chance of Precip.
Yesterday
High -- | Low -- °F
Precip. -- in
6:49 AM 6:35 PM
First Quarter, 57% visible
Pressure 29.89 in
Visibility 10.0 miles
Clouds Overcast 7000 ft
Dew Point 60 °F
Humidity 71%
Rainfall 0.00 in
Snow Depth Not available.
UV 0 out of 12
Pollen 4.90 out of 12
Air Quality Not available.
Flu Activity Not available.
METAR KPAH 020853Z AUTO 16004KT 10SM OVC070 21/16 A2990 RMK AO2 SLP120 T02110156 53002

More Conditions Fewer Conditions

Pressure 29.89 in
Visibility 10.0 miles
Clouds Overcast 7000 ft
Dew Point 60 °F
Humidity 71%
Rainfall 0.00 in
Snow Depth Not available.
UV 0 out of 12
Pollen 4.90 out of 12
Air Quality Not available.
Flu Activity Not available.
METAR KPAH 020853Z AUTO 16004KT 10SM OVC070 21/16 A2990 RMK AO2 SLP120 T02110156 53002

More Conditions Fewer Conditions

10-Day Weather Forecast

Almanac

Astronomy

Oct. 02, 2014 Rise Set
Actual Time 6:49 AM CDT 6:35 PM CDT
Civil Twilight 6:23 AM CDT 7:00 PM CDT
Nautical Twilight 5:53 AM CDT 7:30 PM CDT
Astronomical Twilight 5:23 AM CDT 8:00 PM CDT
Moon 2:32 PM CDT 12:15 AM CDT
Length of Visible Light 12h 37m
Length of Day
11h 46m
Tomorrow will be 2m 16s shorter.
First Quarter, 57% of the Moon is Illuminated
Today
First Quarter
Oct 8
Full
Oct 15
Last Quarter
Oct 23
New
Oct 30
First Quarter

Today's Extremes

State Highs State Lows

Community

WunderPhotos

Upload Photos

1,758,202 photos uploaded!

WunderBlogs® & News

By Dr. Jeff Masters
Director of Meteorology, Weather Underground
By Kari Strenfel
Meteorologist, Weather Underground
By Christopher C. Burt
Weather Historian, Weather Underground
October 2, 2014
October 2, 2014
October 2, 2014

Nearby

Snow Depth

Station Depth Elevation
No new snow has been reported.

Earthquake Activity

City Distance Mag. Time & Date
No recent earthquake activity has been reported nearby.
Minimum magnitude displayed is 2.5.

Coastal Water Temperatures

Place Temperature
No Stations Reporting

Nearby Weather Stations